sensor_id;sensor_type;location;lat;lon;timestamp;pressure;altitude;pressure_sealevel;temperature;humidity
77279;BME280;66332;50.436;15.378;2023-01-01T05:00:28;98678.66;;;5.75;88.58
77279;BME280;66332;50.436;15.378;2023-01-01T05:05:09;98678.28;;;5.80;87.72
77279;BME280;66332;50.436;15.378;2023-01-01T05:09:50;98687.03;;;5.69;86.22
77279;BME280;66332;50.436;15.378;2023-01-01T05:14:31;98691.41;;;5.29;88.59
77279;BME280;66332;50.436;15.378;2023-01-01T05:19:11;98699.06;;;5.21;88.23
77279;BME280;66332;50.436;15.378;2023-01-01T05:23:54;98705.34;;;5.09;89.96
77279;BME280;66332;50.436;15.378;2023-01-01T05:28:36;98704.13;;;5.13;89.95
77279;BME280;66332;50.436;15.378;2023-01-01T05:33:17;98702.66;;;5.30;90.28
77279;BME280;66332;50.436;15.378;2023-01-01T05:37:58;98708.44;;;5.43;89.23
77279;BME280;66332;50.436;15.378;2023-01-01T05:42:39;98705.47;;;5.67;89.32
77279;BME280;66332;50.436;15.378;2023-01-01T05:47:20;98733.06;;;5.89;88.57
77279;BME280;66332;50.436;15.378;2023-01-01T05:52:02;98735.66;;;5.60;88.95
77279;BME280;66332;50.436;15.378;2023-01-01T05:56:43;98720.13;;;5.39;88.91
77279;BME280;66332;50.436;15.378;2023-01-01T06:01:26;98715.25;;;5.15;89.66
77279;BME280;66332;50.436;15.378;2023-01-01T06:06:11;98725.72;;;5.44;88.72
77279;BME280;66332;50.436;15.378;2023-01-01T06:10:57;98720.81;;;5.51;89.12
77279;BME280;66332;50.436;15.378;2023-01-01T06:15:38;98727.94;;;5.39;88.88
77279;BME280;66332;50.436;15.378;2023-01-01T06:20:19;98741.16;;;5.57;88.14
77279;BME280;66332;50.436;15.378;2023-01-01T06:25:00;98747.75;;;5.71;87.64
77279;BME280;66332;50.436;15.378;2023-01-01T06:29:40;98759.00;;;5.81;86.93
77279;BME280;66332;50.436;15.378;2023-01-01T06:34:21;98752.25;;;5.59;87.65
77279;BME280;66332;50.436;15.378;2023-01-01T06:39:02;98752.72;;;5.24;86.43
77279;BME280;66332;50.436;15.378;2023-01-01T06:43:44;98757.25;;;4.91;86.32
77279;BME280;66332;50.436;15.378;2023-01-01T06:48:27;98771.63;;;4.86;88.17
77279;BME280;66332;50.436;15.378;2023-01-01T06:53:08;98750.63;;;4.56;88.33
77279;BME280;66332;50.436;15.378;2023-01-01T06:57:51;98775.16;;;4.33;89.51
77279;BME280;66332;50.436;15.378;2023-01-01T07:02:32;98763.25;;;4.19;89.43
77279;BME280;66332;50.436;15.378;2023-01-01T07:07:12;98775.16;;;4.33;89.61
77279;BME280;66332;50.436;15.378;2023-01-01T07:11:53;98774.13;;;3.92;92.16
77279;BME280;66332;50.436;15.378;2023-01-01T07:16:34;98788.22;;;4.22;90.02
77279;BME280;66332;50.436;15.378;2023-01-01T07:26:26;98799.78;;;4.29;89.30
77279;BME280;66332;50.436;15.378;2023-01-01T07:31:09;98806.66;;;4.30;88.96
77279;BME280;66332;50.436;15.378;2023-01-01T07:35:50;98795.56;;;4.17;89.25
77279;BME280;66332;50.436;15.378;2023-01-01T07:40:31;98799.53;;;4.32;90.33
77279;BME280;66332;50.436;15.378;2023-01-01T07:45:12;98816.44;;;4.58;89.70
77279;BME280;66332;50.436;15.378;2023-01-01T07:49:53;98814.75;;;4.48;89.33
77279;BME280;66332;50.436;15.378;2023-01-01T07:54:34;98825.56;;;4.53;90.08
77279;BME280;66332;50.436;15.378;2023-01-01T07:59:15;98826.25;;;4.66;90.30
77279;BME280;66332;50.436;15.378;2023-01-01T08:03:56;98817.53;;;5.07;89.43
77279;BME280;66332;50.436;15.378;2023-01-01T08:08:36;98820.66;;;5.32;89.59
77279;BME280;66332;50.436;15.378;2023-01-01T08:13:17;98827.22;;;6.17;86.61
77279;BME280;66332;50.436;15.378;2023-01-01T08:18:00;98828.03;;;5.98;88.30
77279;BME280;66332;50.436;15.378;2023-01-01T08:22:42;98832.31;;;6.48;86.84
77279;BME280;66332;50.436;15.378;2023-01-01T08:27:23;98853.34;;;6.36;87.02
77279;BME280;66332;50.436;15.378;2023-01-01T08:32:04;98844.22;;;6.89;85.99
77279;BME280;66332;50.436;15.378;2023-01-01T08:36:44;98864.41;;;6.97;85.28
77279;BME280;66332;50.436;15.378;2023-01-01T08:41:25;98885.72;;;7.11;84.95
77279;BME280;66332;50.436;15.378;2023-01-01T08:46:06;98887.47;;;7.40;84.72
77279;BME280;66332;50.436;15.378;2023-01-01T08:50:58;98891.84;;;7.77;83.96
77279;BME280;66332;50.436;15.378;2023-01-01T08:55:42;98896.22;;;7.86;82.22
77279;BME280;66332;50.436;15.378;2023-01-01T09:00:23;98887.53;;;8.13;82.48
77279;BME280;66332;50.436;15.378;2023-01-01T09:05:04;98881.97;;;8.44;81.19
77279;BME280;66332;50.436;15.378;2023-01-01T09:09:45;98894.38;;;8.78;80.87
77279;BME280;66332;50.436;15.378;2023-01-01T09:14:26;98906.38;;;8.80;80.96
77279;BME280;66332;50.436;15.378;2023-01-01T09:19:07;98896.91;;;9.05;80.76
77279;BME280;66332;50.436;15.378;2023-01-01T09:23:48;98890.69;;;9.32;80.02
77279;BME280;66332;50.436;15.378;2023-01-01T09:28:34;98891.13;;;9.28;80.15
77279;BME280;66332;50.436;15.378;2023-01-01T09:33:18;98899.13;;;9.44;79.42
77279;BME280;66332;50.436;15.378;2023-01-01T09:37:58;98902.06;;;9.49;78.84
77279;BME280;66332;50.436;15.378;2023-01-01T09:42:44;98881.94;;;10.00;77.31
77279;BME280;66332;50.436;15.378;2023-01-01T09:47:33;98898.38;;;10.02;77.76
77279;BME280;66332;50.436;15.378;2023-01-01T09:52:17;98879.28;;;10.26;76.68
77279;BME280;66332;50.436;15.378;2023-01-01T09:57:01;98889.81;;;10.43;76.02
77279;BME280;66332;50.436;15.378;2023-01-01T10:01:48;98887.88;;;10.53;75.29
77279;BME280;66332;50.436;15.378;2023-01-01T10:06:33;98892.97;;;10.63;75.28
77279;BME280;66332;50.436;15.378;2023-01-01T10:11:28;98861.06;;;10.74;74.45
77279;BME280;66332;50.436;15.378;2023-01-01T10:21:33;98874.88;;;11.00;72.85
77279;BME280;66332;50.436;15.378;2023-01-01T10:26:20;98881.38;;;11.37;71.73
77279;BME280;66332;50.436;15.378;2023-01-01T10:31:20;98871.78;;;11.61;70.49
77279;BME280;66332;50.436;15.378;2023-01-01T10:36:09;98873.88;;;11.74;70.60
77279;BME280;66332;50.436;15.378;2023-01-01T10:40:55;98864.47;;;11.79;69.53
77279;BME280;66332;50.436;15.378;2023-01-01T10:45:49;98880.88;;;11.98;68.64
77279;BME280;66332;50.436;15.378;2023-01-01T10:51:05;98887.84;;;11.90;70.46
77279;BME280;66332;50.436;15.378;2023-01-01T10:55:49;98884.13;;;12.08;69.72
77279;BME280;66332;50.436;15.378;2023-01-01T11:00:30;98858.16;;;11.97;69.06
77279;BME280;66332;50.436;15.378;2023-01-01T11:05:19;98872.75;;;12.07;68.76
77279;BME280;66332;50.436;15.378;2023-01-01T11:10:02;98880.28;;;12.42;68.88
77279;BME280;66332;50.436;15.378;2023-01-01T11:14:52;98873.44;;;12.55;68.86
77279;BME280;66332;50.436;15.378;2023-01-01T11:19:38;98881.59;;;12.69;68.03
77279;BME280;66332;50.436;15.378;2023-01-01T11:29:16;98879.22;;;12.97;68.90
77279;BME280;66332;50.436;15.378;2023-01-01T11:33:58;98878.47;;;12.88;67.11
77279;BME280;66332;50.436;15.378;2023-01-01T11:38:40;98855.19;;;12.69;67.61
77279;BME280;66332;50.436;15.378;2023-01-01T11:43:23;98866.69;;;12.76;69.37
77279;BME280;66332;50.436;15.378;2023-01-01T11:48:13;98859.13;;;12.50;71.15
77279;BME280;66332;50.436;15.378;2023-01-01T11:52:58;98859.66;;;12.68;70.83
77279;BME280;66332;50.436;15.378;2023-01-01T11:58:18;98848.34;;;12.82;69.85
77279;BME280;66332;50.436;15.378;2023-01-01T12:03:28;98854.91;;;13.01;67.79
77279;BME280;66332;50.436;15.378;2023-01-01T12:08:16;98856.81;;;13.30;67.10
77279;BME280;66332;50.436;15.378;2023-01-01T12:13:04;98855.84;;;13.23;66.15
77279;BME280;66332;50.436;15.378;2023-01-01T12:18:32;98827.56;;;12.79;68.34
77279;BME280;66332;50.436;15.378;2023-01-01T12:23:07;98840.94;;;12.78;69.14
77279;BME280;66332;50.436;15.378;2023-01-01T12:28:02;98862.28;;;12.68;71.18
77279;BME280;66332;50.436;15.378;2023-01-01T12:43:09;98852.59;;;12.46;73.01
77279;BME280;66332;50.436;15.378;2023-01-01T12:57:54;98844.25;;;12.34;72.30
77279;BME280;66332;50.436;15.378;2023-01-01T13:02:45;98852.44;;;12.62;71.43
77279;BME280;66332;50.436;15.378;2023-01-01T13:07:48;98847.69;;;12.80;71.24
77279;BME280;66332;50.436;15.378;2023-01-01T13:12:30;98850.81;;;12.61;72.16
77279;BME280;66332;50.436;15.378;2023-01-01T13:17:21;98845.13;;;12.72;72.36
77279;BME280;66332;50.436;15.378;2023-01-01T13:27:08;98840.13;;;12.77;70.72
77279;BME280;66332;50.436;15.378;2023-01-01T13:36:37;98856.81;;;13.60;59.28
77279;BME280;66332;50.436;15.378;2023-01-01T13:46:06;98846.78;;;13.70;60.23
77279;BME280;66332;50.436;15.378;2023-01-01T14:05:57;98834.72;;;11.62;73.16
77279;BME280;66332;50.436;15.378;2023-01-01T14:10:39;98827.72;;;11.46;72.63
77279;BME280;66332;50.436;15.378;2023-01-01T14:15:30;98815.16;;;11.09;73.43
77279;BME280;66332;50.436;15.378;2023-01-01T14:20:17;98845.06;;;11.16;73.29
77279;BME280;66332;50.436;15.378;2023-01-01T14:24:59;98838.97;;;11.16;75.47
77279;BME280;66332;50.436;15.378;2023-01-01T14:29:40;98853.56;;;11.35;72.97
77279;BME280;66332;50.436;15.378;2023-01-01T14:39:22;98843.47;;;11.63;66.97
77279;BME280;66332;50.436;15.378;2023-01-01T14:44:15;98854.00;;;12.33;64.99
77279;BME280;66332;50.436;15.378;2023-01-01T14:49:08;98857.94;;;12.29;64.94
77279;BME280;66332;50.436;15.378;2023-01-01T14:53:51;98879.00;;;12.37;64.78
77279;BME280;66332;50.436;15.378;2023-01-01T14:58:33;98893.94;;;12.22;65.31
77279;BME280;66332;50.436;15.378;2023-01-01T15:03:18;98886.63;;;12.01;66.50
77279;BME280;66332;50.436;15.378;2023-01-01T15:08:02;98886.47;;;11.47;69.07
77279;BME280;66332;50.436;15.378;2023-01-01T15:12:43;98867.66;;;10.70;71.74
77279;BME280;66332;50.436;15.378;2023-01-01T15:17:25;98843.47;;;10.58;71.41
77279;BME280;66332;50.436;15.378;2023-01-01T15:22:26;98870.75;;;10.49;71.82
77279;BME280;66332;50.436;15.378;2023-01-01T15:27:26;98887.34;;;10.33;72.58
77279;BME280;66332;50.436;15.378;2023-01-01T15:32:22;98881.28;;;9.90;73.99
77279;BME280;66332;50.436;15.378;2023-01-01T15:37:16;98891.25;;;9.18;77.05
77279;BME280;66332;50.436;15.378;2023-01-01T15:41:59;98877.38;;;8.64;78.81
77279;BME280;66332;50.436;15.378;2023-01-01T15:46:45;98888.41;;;8.04;81.05
77279;BME280;66332;50.436;15.378;2023-01-01T15:51:27;98896.09;;;8.05;81.61
77279;BME280;66332;50.436;15.378;2023-01-01T15:56:10;98895.09;;;8.16;81.42
77279;BME280;66332;50.436;15.378;2023-01-01T16:00:58;98894.53;;;7.95;82.75
77279;BME280;66332;50.436;15.378;2023-01-01T16:05:50;98909.34;;;8.04;83.24
77279;BME280;66332;50.436;15.378;2023-01-01T16:10:33;98910.47;;;8.01;82.42
77279;BME280;66332;50.436;15.378;2023-01-01T16:15:14;98882.78;;;7.71;82.93
77279;BME280;66332;50.436;15.378;2023-01-01T16:19:56;98902.56;;;7.84;83.57
77279;BME280;66332;50.436;15.378;2023-01-01T16:24:37;98896.09;;;8.05;82.31
77279;BME280;66332;50.436;15.378;2023-01-01T16:29:18;98893.78;;;8.02;81.79
77279;BME280;66332;50.436;15.378;2023-01-01T16:34:00;98885.63;;;7.78;81.98
77279;BME280;66332;50.436;15.378;2023-01-01T16:38:41;98899.75;;;7.95;81.63
77279;BME280;66332;50.436;15.378;2023-01-01T16:43:22;98915.47;;;7.67;82.32
77279;BME280;66332;50.436;15.378;2023-01-01T16:48:03;98897.84;;;7.59;83.52
77279;BME280;66332;50.436;15.378;2023-01-01T16:52:44;98908.09;;;7.80;83.14
77279;BME280;66332;50.436;15.378;2023-01-01T16:57:25;98911.00;;;8.05;81.44
77279;BME280;66332;50.436;15.378;2023-01-01T17:02:08;98913.22;;;8.00;81.42
77279;BME280;66332;50.436;15.378;2023-01-01T17:06:50;98935.94;;;7.72;81.55
77279;BME280;66332;50.436;15.378;2023-01-01T17:11:31;98904.25;;;7.38;81.98
77279;BME280;66332;50.436;15.378;2023-01-01T17:16:14;98925.34;;;7.26;83.19
77279;BME280;66332;50.436;15.378;2023-01-01T17:21:03;98942.31;;;7.12;83.25
77279;BME280;66332;50.436;15.378;2023-01-01T17:25:45;98944.13;;;6.73;84.58
77279;BME280;66332;50.436;15.378;2023-01-01T17:30:26;98944.25;;;6.72;84.99
77279;BME280;66332;50.436;15.378;2023-01-01T17:35:07;98958.00;;;7.03;84.03
77279;BME280;66332;50.436;15.378;2023-01-01T17:39:48;98942.41;;;7.21;83.60
77279;BME280;66332;50.436;15.378;2023-01-01T17:44:29;98937.91;;;7.13;83.46
77279;BME280;66332;50.436;15.378;2023-01-01T17:49:10;98959.19;;;7.38;83.18
77279;BME280;66332;50.436;15.378;2023-01-01T17:53:51;98962.94;;;7.25;83.25
77279;BME280;66332;50.436;15.378;2023-01-01T17:58:33;98956.72;;;7.26;83.21
77279;BME280;66332;50.436;15.378;2023-01-01T18:03:16;98938.19;;;7.00;83.68
77279;BME280;66332;50.436;15.378;2023-01-01T18:07:57;98951.25;;;7.20;83.86
77279;BME280;66332;50.436;15.378;2023-01-01T18:12:38;98962.25;;;7.23;83.52
77279;BME280;66332;50.436;15.378;2023-01-01T18:17:20;98969.66;;;7.18;84.17
77279;BME280;66332;50.436;15.378;2023-01-01T18:22:01;98949.69;;;7.27;84.14
77279;BME280;66332;50.436;15.378;2023-01-01T18:26:42;98961.50;;;7.50;83.14
77279;BME280;66332;50.436;15.378;2023-01-01T18:31:24;98965.78;;;7.42;83.93
77279;BME280;66332;50.436;15.378;2023-01-01T18:36:09;98955.94;;;7.16;83.87
77279;BME280;66332;50.436;15.378;2023-01-01T18:40:59;98969.56;;;7.10;84.54
77279;BME280;66332;50.436;15.378;2023-01-01T18:45:40;98963.66;;;6.98;85.07
77279;BME280;66332;50.436;15.378;2023-01-01T18:50:26;98980.69;;;7.31;84.20
77279;BME280;66332;50.436;15.378;2023-01-01T18:55:14;98971.03;;;7.42;83.74
77279;BME280;66332;50.436;15.378;2023-01-01T18:59:58;98966.78;;;7.31;84.69
77279;BME280;66332;50.436;15.378;2023-01-01T19:04:43;98965.97;;;7.21;84.96
77279;BME280;66332;50.436;15.378;2023-01-01T19:09:24;98955.66;;;7.19;85.32
77279;BME280;66332;50.436;15.378;2023-01-01T19:14:23;98945.31;;;7.27;84.42
77279;BME280;66332;50.436;15.378;2023-01-01T19:19:16;98942.59;;;7.09;84.71
77279;BME280;66332;50.436;15.378;2023-01-01T19:23:59;98948.59;;;7.29;84.66
77279;BME280;66332;50.436;15.378;2023-01-01T19:28:48;98974.34;;;7.34;84.28
77279;BME280;66332;50.436;15.378;2023-01-01T19:33:31;98969.69;;;7.28;84.41
77279;BME280;66332;50.436;15.378;2023-01-01T19:38:13;98944.66;;;7.16;84.05
77279;BME280;66332;50.436;15.378;2023-01-01T19:42:55;98974.34;;;7.44;84.15
77279;BME280;66332;50.436;15.378;2023-01-01T19:47:36;98987.13;;;7.47;84.10
77279;BME280;66332;50.436;15.378;2023-01-01T19:52:17;98968.44;;;7.32;83.88
77279;BME280;66332;50.436;15.378;2023-01-01T19:56:58;98954.69;;;7.10;84.29
77279;BME280;66332;50.436;15.378;2023-01-01T20:01:40;98967.22;;;7.07;84.65
77279;BME280;66332;50.436;15.378;2023-01-01T20:06:22;98984.84;;;7.05;84.89
77279;BME280;66332;50.436;15.378;2023-01-01T20:11:04;98980.00;;;7.20;84.16
77279;BME280;66332;50.436;15.378;2023-01-01T20:15:45;98966.78;;;7.11;83.78
77279;BME280;66332;50.436;15.378;2023-01-01T20:20:26;98976.03;;;7.16;83.47
77279;BME280;66332;50.436;15.378;2023-01-01T20:25:08;98988.81;;;7.19;83.17
77279;BME280;66332;50.436;15.378;2023-01-01T20:29:49;98983.44;;;7.20;83.44
77279;BME280;66332;50.436;15.378;2023-01-01T20:34:30;98986.63;;;7.14;83.19
77279;BME280;66332;50.436;15.378;2023-01-01T20:39:11;98991.31;;;7.10;83.17
77279;BME280;66332;50.436;15.378;2023-01-01T20:43:57;98987.28;;;6.97;83.46
77279;BME280;66332;50.436;15.378;2023-01-01T20:48:39;99013.03;;;7.11;82.83
77279;BME280;66332;50.436;15.378;2023-01-01T20:53:20;99001.88;;;6.99;83.41
77279;BME280;66332;50.436;15.378;2023-01-01T20:58:01;99012.34;;;6.89;83.59
77279;BME280;66332;50.436;15.378;2023-01-01T21:02:42;99000.25;;;6.79;83.62
77279;BME280;66332;50.436;15.378;2023-01-01T21:07:23;98966.94;;;6.61;83.93
77279;BME280;66332;50.436;15.378;2023-01-01T21:12:04;99001.19;;;6.78;83.66
77279;BME280;66332;50.436;15.378;2023-01-01T21:16:45;98994.19;;;6.88;82.89
77279;BME280;66332;50.436;15.378;2023-01-01T21:26:50;98988.81;;;6.80;83.45
77279;BME280;66332;50.436;15.378;2023-01-01T21:31:46;99000.09;;;6.90;83.46
77279;BME280;66332;50.436;15.378;2023-01-01T21:36:30;98988.00;;;6.89;83.44
77279;BME280;66332;50.436;15.378;2023-01-01T21:41:21;98992.53;;;6.97;83.31
77279;BME280;66332;50.436;15.378;2023-01-01T21:50:48;98984.81;;;7.15;82.30
77279;BME280;66332;50.436;15.378;2023-01-01T21:55:30;98961.84;;;7.08;82.33
77279;BME280;66332;50.436;15.378;2023-01-01T22:00:31;98987.03;;;7.09;82.38
77279;BME280;66332;50.436;15.378;2023-01-01T22:05:30;98977.78;;;7.15;82.14
77279;BME280;66332;50.436;15.378;2023-01-01T22:10:33;98987.03;;;7.00;83.03
77279;BME280;66332;50.436;15.378;2023-01-01T22:20:25;98972.72;;;7.04;83.00
77279;BME280;66332;50.436;15.378;2023-01-01T22:25:26;98967.88;;;7.09;82.45
77279;BME280;66332;50.436;15.378;2023-01-01T22:35:11;98962.13;;;7.05;82.35
77279;BME280;66332;50.436;15.378;2023-01-01T22:39:53;98954.97;;;6.98;82.13
77279;BME280;66332;50.436;15.378;2023-01-01T22:44:34;98948.22;;;6.95;82.14
77279;BME280;66332;50.436;15.378;2023-01-01T22:49:32;98936.97;;;6.95;81.77
77279;BME280;66332;50.436;15.378;2023-01-01T22:54:14;98961.72;;;7.10;81.52
